Main page
METAR-TAF:

METAR-TAF

Airports :

Stockholm Västerås Airport

Västerås, Sweden

latitude: 59-35N, longitude: 016-38E, elevation: 6 m

Current weather observation

The report was made 17 minutes ago, at 12:50 UTC
Wind 6 kt from the Southwest
Temperature 0°C
Humidity 64%
Pressure 1003 hPa
Visibility 10 km or more
no clouds below 1500 m and no cumulonimbus

METAR: ESOW 281250Z 22006KT CAVOK 00/M06 Q1003 R19/290195

Time: 14:07 (13:07 UTC)

Forecast

The report was made 1 hour and 37 minutes ago, at 11:30 UTC
Forecast valid from 28 at 12 UTC to 28 at 16 UTC
Wind 4 kt from the South
Visibility 10 km or more
no clouds below 1500 m and no cumulonimbus

TAF: ESOW 281130Z 2812/2816 19004KT CAVOK

Weather observations and forecasts of more than 4000 airports (METAR and TAF reports).

The available stations are represented by yellow and red dots on the map.

Hover mouse over dot to see the name of the station.

Then click to see weather observations and forecasts.

To change the map : click on the green buttons with a black cross to zoom in, on the green button with a dash to zoom out, or on the green arrows for adjacent maps.


METAR-TAF: